Time;durP1;ratioP1;P1;durP2;ratioP2;P2;SDS_P1;SDS_P2;PMS_P1;PMS_P2;Temp;Humidity;BMP_temperature;BMP_pressure;BME280_temperature;BME280_humidity;BME280_pressure;Samples;Min_cycle;Max_cycle;Signal;HPM_P1;HPM_P2
2021/10/11 00:00:29;;;;;;;63.63;38.00;;;;;;;;;;5035230;28;20486;-47
2021/10/11 00:02:55;;;;;;;67.63;38.83;;;;;;;;;;5034805;28;21016;-47
2021/10/11 00:05:22;;;;;;;67.47;39.43;;;;;;;;;;5033834;28;20505;-43
2021/10/11 00:07:48;;;;;;;70.20;39.57;;;;;;;;;;5034919;28;20453;-44
2021/10/11 00:10:20;;;;;;;75.43;43.10;;;;;;;;;;5034816;28;20489;-43
2021/10/11 00:12:49;;;;;;;81.13;44.10;;;;;;;;;;5034655;28;20449;-44
2021/10/11 00:15:16;;;;;;;71.80;42.67;;;;;;;;;;5034886;28;20885;-45
2021/10/11 00:17:42;;;;;;;81.87;42.40;;;;;;;;;;5034781;28;20409;-43
2021/10/11 00:20:09;;;;;;;68.20;40.63;;;;;;;;;;5034811;28;20406;-44
2021/10/11 00:22:35;;;;;;;72.00;42.30;;;;;;;;;;5034381;28;20422;-45
2021/10/11 00:25:00;;;;;;;75.97;41.43;;;;;;;;;;5034678;28;20413;-44
2021/10/11 00:27:26;;;;;;;84.23;44.83;;;;;;;;;;5034519;28;20403;-44
2021/10/11 00:29:52;;;;;;;69.70;41.83;;;;;;;;;;5034602;28;20496;-44
2021/10/11 00:32:18;;;;;;;74.43;43.27;;;;;;;;;;5034341;28;20425;-44
2021/10/11 00:34:44;;;;;;;74.17;40.80;;;;;;;;;;5034589;28;20402;-44
2021/10/11 00:37:10;;;;;;;73.07;41.37;;;;;;;;;;5034304;28;20409;-45
2021/10/11 00:39:36;;;;;;;76.87;43.50;;;;;;;;;;5034340;28;20442;-44
2021/10/11 00:42:02;;;;;;;79.03;42.60;;;;;;;;;;5034058;28;20937;-47
2021/10/11 00:44:28;;;;;;;77.87;42.87;;;;;;;;;;5034396;28;20437;-48
2021/10/11 00:46:54;;;;;;;77.73;40.77;;;;;;;;;;5034578;28;20399;-43
2021/10/11 00:49:20;;;;;;;73.13;41.70;;;;;;;;;;5034256;28;20963;-44
2021/10/11 00:51:47;;;;;;;80.70;42.97;;;;;;;;;;5033846;28;20434;-44
2021/10/11 00:54:13;;;;;;;68.50;40.77;;;;;;;;;;5034259;28;20769;-44
2021/10/11 00:56:39;;;;;;;70.03;39.07;;;;;;;;;;5034129;28;20398;-44
2021/10/11 00:59:05;;;;;;;59.90;35.20;;;;;;;;;;5034061;28;20464;-44
2021/10/11 01:01:31;;;;;;;68.37;38.97;;;;;;;;;;5033499;28;20431;-44
2021/10/11 01:03:57;;;;;;;72.93;38.50;;;;;;;;;;5033315;28;20402;-44
2021/10/11 01:06:23;;;;;;;65.83;38.63;;;;;;;;;;5033872;28;20404;-44
2021/10/11 01:08:49;;;;;;;71.83;39.17;;;;;;;;;;5033758;28;20458;-45
2021/10/11 01:11:15;;;;;;;71.70;40.43;;;;;;;;;;5033675;28;20405;-44
2021/10/11 01:13:41;;;;;;;72.23;40.87;;;;;;;;;;5033667;28;20414;-44
2021/10/11 01:16:07;;;;;;;69.77;42.03;;;;;;;;;;5033880;28;20456;-45
2021/10/11 01:18:33;;;;;;;78.83;41.27;;;;;;;;;;5033663;28;20754;-45
2021/10/11 01:20:59;;;;;;;56.03;30.37;;;;;;;;;;5033626;28;20456;-46
2021/10/11 01:23:26;;;;;;;73.60;38.90;;;;;;;;;;5033488;28;20449;-44
2021/10/11 01:25:52;;;;;;;80.53;37.33;;;;;;;;;;5033769;28;20401;-44
2021/10/11 01:28:18;;;;;;;69.87;40.77;;;;;;;;;;5033431;28;20449;-44
2021/10/11 01:30:44;;;;;;;64.97;36.97;;;;;;;;;;5033482;28;20502;-44
2021/10/11 01:33:10;;;;;;;76.13;37.17;;;;;;;;;;5033176;28;20457;-44
2021/10/11 01:35:36;;;;;;;66.27;37.43;;;;;;;;;;5033307;28;20413;-44
2021/10/11 01:38:03;;;;;;;65.70;35.90;;;;;;;;;;5033328;28;20415;-44
2021/10/11 01:40:29;;;;;;;64.87;37.23;;;;;;;;;;5033358;28;20415;-45
2021/10/11 01:42:55;;;;;;;68.50;38.13;;;;;;;;;;5033008;28;20438;-45
2021/10/11 01:45:21;;;;;;;74.97;40.13;;;;;;;;;;5033256;28;20402;-45
2021/10/11 01:47:47;;;;;;;86.53;42.20;;;;;;;;;;5033113;28;20460;-45
2021/10/11 01:50:12;;;;;;;76.30;42.73;;;;;;;;;;5032976;28;20398;-46
2021/10/11 01:52:40;;;;;;;76.33;41.77;;;;;;;;;;5032678;28;20470;-47
2021/10/11 01:55:06;;;;;;;88.97;46.20;;;;;;;;;;5033033;28;20398;-44
2021/10/11 01:57:32;;;;;;;82.83;42.50;;;;;;;;;;5032972;28;20398;-44
2021/10/11 01:59:58;;;;;;;81.87;43.40;;;;;;;;;;5032951;28;20843;-44
2021/10/11 02:02:27;;;;;;;86.57;45.23;;;;;;;;;;5033103;28;20539;-44
2021/10/11 02:04:53;;;;;;;85.00;42.90;;;;;;;;;;5032816;28;20948;-44
2021/10/11 02:07:19;;;;;;;73.20;38.63;;;;;;;;;;5032636;28;20408;-44
2021/10/11 02:09:45;;;;;;;75.27;43.33;;;;;;;;;;5032891;28;20410;-44
2021/10/11 02:12:12;;;;;;;74.93;40.70;;;;;;;;;;5032390;28;20501;-44
2021/10/11 02:14:38;;;;;;;73.00;40.63;;;;;;;;;;5032728;28;20804;-46
2021/10/11 02:17:05;;;;;;;78.73;42.47;;;;;;;;;;5032013;28;20388;-47
2021/10/11 02:19:32;;;;;;;78.27;41.87;;;;;;;;;;5032777;28;20402;-44
2021/10/11 02:21:58;;;;;;;74.93;42.57;;;;;;;;;;5032269;28;20820;-44
2021/10/11 02:24:25;;;;;;;80.87;43.93;;;;;;;;;;5032508;28;20445;-45
2021/10/11 02:26:51;;;;;;;74.10;43.00;;;;;;;;;;5032366;28;20392;-44
2021/10/11 02:29:19;;;;;;;83.10;44.57;;;;;;;;;;5032308;28;20557;-45
2021/10/11 02:31:45;;;;;;;79.20;42.33;;;;;;;;;;5032089;28;20425;-46
2021/10/11 02:34:12;;;;;;;83.60;44.90;;;;;;;;;;5032271;28;20906;-44
2021/10/11 02:36:38;;;;;;;80.87;44.20;;;;;;;;;;5030923;28;20422;-45
2021/10/11 02:39:05;;;;;;;79.77;41.70;;;;;;;;;;5032355;28;20398;-44
2021/10/11 02:41:32;;;;;;;73.80;42.40;;;;;;;;;;5032162;28;20484;-44
2021/10/11 02:43:58;;;;;;;84.83;43.77;;;;;;;;;;5032012;28;20407;-48
2021/10/11 02:46:27;;;;;;;80.90;43.73;;;;;;;;;;5031987;28;20402;-45
2021/10/11 02:48:53;;;;;;;90.30;45.70;;;;;;;;;;5031987;28;20515;-44
2021/10/11 02:51:19;;;;;;;91.23;48.33;;;;;;;;;;5031747;28;20483;-44
2021/10/11 02:53:51;;;;;;;92.93;47.10;;;;;;;;;;5031861;28;20402;-45
2021/10/11 02:56:17;;;;;;;95.10;47.50;;;;;;;;;;5032042;28;20402;-44
2021/10/11 02:58:43;;;;;;;90.53;48.43;;;;;;;;;;5031896;28;20769;-44
2021/10/11 03:01:09;;;;;;;91.03;47.77;;;;;;;;;;5031794;28;20740;-44
2021/10/11 03:03:35;;;;;;;96.17;49.77;;;;;;;;;;5031777;28;20497;-46
2021/10/11 03:06:02;;;;;;;95.53;48.93;;;;;;;;;;5031871;28;20446;-47
2021/10/11 03:08:28;;;;;;;87.53;47.13;;;;;;;;;;5031697;28;20454;-44
2021/10/11 03:10:54;;;;;;;99.43;49.33;;;;;;;;;;5031856;28;20409;-45
2021/10/11 03:13:20;;;;;;;90.73;48.77;;;;;;;;;;5031483;28;20451;-47
2021/10/11 03:15:46;;;;;;;99.80;51.00;;;;;;;;;;5031730;28;20400;-44
2021/10/11 03:18:12;;;;;;;97.50;53.37;;;;;;;;;;5031778;28;20907;-44
2021/10/11 03:20:39;;;;;;;111.20;52.43;;;;;;;;;;5031743;28;20754;-44
2021/10/11 03:23:05;;;;;;;104.10;49.27;;;;;;;;;;5031439;28;20437;-44
2021/10/11 03:25:36;;;;;;;102.43;49.00;;;;;;;;;;5031721;28;20408;-45
2021/10/11 03:28:03;;;;;;;106.43;51.47;;;;;;;;;;5031799;28;20457;-44
2021/10/11 03:30:30;;;;;;;108.87;51.43;;;;;;;;;;5035674;28;20396;-45
2021/10/11 03:32:57;;;;;;;104.97;49.70;;;;;;;;;;5035414;28;20426;-45
2021/10/11 03:35:24;;;;;;;106.43;50.20;;;;;;;;;;5035652;28;20404;-45
2021/10/11 03:37:50;;;;;;;109.83;50.53;;;;;;;;;;5035663;28;20407;-45
2021/10/11 03:40:16;;;;;;;96.13;49.57;;;;;;;;;;5035563;28;20859;-45
2021/10/11 03:42:42;;;;;;;93.30;47.07;;;;;;;;;;5035191;28;20671;-47
2021/10/11 03:45:08;;;;;;;96.50;49.23;;;;;;;;;;5035597;28;20415;-48
2021/10/11 03:47:37;;;;;;;93.27;48.70;;;;;;;;;;5035270;28;20456;-47
2021/10/11 03:50:03;;;;;;;87.47;45.83;;;;;;;;;;5035530;28;20409;-45
2021/10/11 03:52:29;;;;;;;98.63;49.97;;;;;;;;;;5034968;28;20528;-45
2021/10/11 03:54:55;;;;;;;88.73;47.73;;;;;;;;;;5035318;28;20859;-45
2021/10/11 03:57:21;;;;;;;96.80;48.57;;;;;;;;;;5035151;28;20406;-45
2021/10/11 03:59:47;;;;;;;101.37;48.70;;;;;;;;;;5035187;28;20889;-47
2021/10/11 04:02:14;;;;;;;91.43;48.57;;;;;;;;;;5034896;28;20451;-45
2021/10/11 04:04:40;;;;;;;93.47;48.73;;;;;;;;;;5035084;28;20456;-44
2021/10/11 04:07:10;;;;;;;103.33;49.70;;;;;;;;;;5034989;28;20407;-45
2021/10/11 04:09:37;;;;;;;96.67;45.30;;;;;;;;;;5034865;28;20878;-47
2021/10/11 04:12:17;;;;;;;91.80;46.50;;;;;;;;;;5034632;28;20422;-45
2021/10/11 04:14:44;;;;;;;87.27;43.20;;;;;;;;;;5034971;28;20410;-45
2021/10/11 04:17:10;;;;;;;100.60;48.33;;;;;;;;;;5034860;28;20395;-45
2021/10/11 04:19:36;;;;;;;94.70;45.50;;;;;;;;;;5034839;28;20453;-47
2021/10/11 04:22:02;;;;;;;90.07;46.20;;;;;;;;;;5034501;28;20429;-46
2021/10/11 04:24:28;;;;;;;95.60;46.33;;;;;;;;;;5034656;28;20452;-45
2021/10/11 04:26:54;;;;;;;84.53;42.90;;;;;;;;;;5034663;28;20399;-47
2021/10/11 04:29:20;;;;;;;92.43;44.83;;;;;;;;;;5034531;28;20462;-43
2021/10/11 04:31:47;;;;;;;84.13;45.90;;;;;;;;;;5034357;28;20424;-52
2021/10/11 04:34:14;;;;;;;92.83;46.20;;;;;;;;;;5034512;28;20821;-47
2021/10/11 04:36:43;;;;;;;89.00;44.23;;;;;;;;;;5034447;28;20445;-44
2021/10/11 04:39:09;;;;;;;97.73;45.17;;;;;;;;;;5034107;28;20456;-45
2021/10/11 04:41:35;;;;;;;98.10;46.50;;;;;;;;;;5034294;28;20429;-45
2021/10/11 04:44:02;;;;;;;89.37;42.87;;;;;;;;;;5034187;28;20413;-44
2021/10/11 04:46:28;;;;;;;92.20;44.63;;;;;;;;;;5034273;28;20410;-46
2021/10/11 04:48:55;;;;;;;84.50;43.50;;;;;;;;;;5034158;28;20501;-47
2021/10/11 04:51:21;;;;;;;87.90;42.70;;;;;;;;;;5033955;28;20430;-44
2021/10/11 04:53:47;;;;;;;85.50;41.77;;;;;;;;;;5034019;28;20438;-45
2021/10/11 04:56:13;;;;;;;84.00;41.97;;;;;;;;;;5034175;28;20442;-44
2021/10/11 04:58:40;;;;;;;90.60;43.17;;;;;;;;;;5034315;28;20406;-45
2021/10/11 05:01:06;;;;;;;90.97;44.90;;;;;;;;;;5033999;28;20535;-44
2021/10/11 05:03:32;;;;;;;102.47;46.23;;;;;;;;;;5033756;28;20885;-44
2021/10/11 05:05:58;;;;;;;84.43;41.50;;;;;;;;;;5033905;28;20508;-44
2021/10/11 05:08:24;;;;;;;86.00;43.93;;;;;;;;;;5033791;28;20554;-44
2021/10/11 05:10:49;;;;;;;84.37;40.23;;;;;;;;;;5033846;28;20413;-45
2021/10/11 05:13:16;;;;;;;85.13;42.27;;;;;;;;;;5033566;28;20443;-47
2021/10/11 05:15:43;;;;;;;85.37;43.37;;;;;;;;;;5033941;28;20406;-48
2021/10/11 05:18:09;;;;;;;89.73;42.10;;;;;;;;;;5033756;28;20399;-45
2021/10/11 05:20:36;;;;;;;91.30;43.70;;;;;;;;;;5033594;28;20416;-44
2021/10/11 05:23:02;;;;;;;94.10;44.10;;;;;;;;;;5033339;28;20787;-47
2021/10/11 05:25:28;;;;;;;81.23;40.63;;;;;;;;;;5033574;28;20426;-47
2021/10/11 05:27:55;;;;;;;78.47;39.50;;;;;;;;;;5033438;28;20493;-46
2021/10/11 05:30:21;;;;;;;81.57;40.03;;;;;;;;;;5033569;28;20404;-47
2021/10/11 05:32:47;;;;;;;75.47;37.37;;;;;;;;;;5033133;28;20480;-48
2021/10/11 05:35:13;;;;;;;77.33;36.57;;;;;;;;;;5033333;28;20398;-44
2021/10/11 05:37:39;;;;;;;74.07;36.97;;;;;;;;;;5033353;28;20910;-44
2021/10/11 05:40:09;;;;;;;72.07;37.87;;;;;;;;;;5033286;28;20400;-44
2021/10/11 05:42:35;;;;;;;65.10;34.23;;;;;;;;;;5032997;28;20429;-45
2021/10/11 05:45:01;;;;;;;70.90;36.30;;;;;;;;;;5033313;28;20403;-44
2021/10/11 05:47:27;;;;;;;59.43;33.10;;;;;;;;;;5032954;28;20408;-45
2021/10/11 05:49:53;;;;;;;63.87;35.20;;;;;;;;;;5033077;28;20419;-44
2021/10/11 05:52:19;;;;;;;64.83;33.37;;;;;;;;;;5032591;28;20960;-46
2021/10/11 05:54:45;;;;;;;68.10;33.00;;;;;;;;;;5033099;28;20406;-47
2021/10/11 05:57:13;;;;;;;66.27;34.27;;;;;;;;;;5032950;28;20407;-47
2021/10/11 05:59:40;;;;;;;56.97;31.37;;;;;;;;;;5032886;28;20403;-46
2021/10/11 06:02:07;;;;;;;62.33;30.10;;;;;;;;;;5032519;28;20427;-48
2021/10/11 06:04:34;;;;;;;65.20;31.33;;;;;;;;;;5032726;28;20896;-47
2021/10/11 06:07:01;;;;;;;57.77;31.80;;;;;;;;;;5032827;28;20776;-47
2021/10/11 06:09:27;;;;;;;57.83;30.43;;;;;;;;;;5032717;28;20454;-46
2021/10/11 06:12:29;;;;;;;53.87;29.23;;;;;;;;;;5032058;28;20822;-47
2021/10/11 06:14:55;;;;;;;55.03;28.63;;;;;;;;;;5032745;28;20407;-45
2021/10/11 06:17:21;;;;;;;48.10;25.70;;;;;;;;;;5032525;28;20886;-46
2021/10/11 06:19:47;;;;;;;49.90;28.30;;;;;;;;;;5032593;28;20410;-46
2021/10/11 06:22:13;;;;;;;43.47;25.90;;;;;;;;;;5032277;28;20945;-45
2021/10/11 06:24:39;;;;;;;48.10;25.17;;;;;;;;;;5032566;28;20783;-46
2021/10/11 06:27:05;;;;;;;45.43;24.20;;;;;;;;;;5032321;28;20525;-46
2021/10/11 06:29:31;;;;;;;45.10;23.77;;;;;;;;;;5032382;28;20958;-46
2021/10/11 06:31:57;;;;;;;47.20;24.57;;;;;;;;;;5032027;28;20427;-46
2021/10/11 06:34:23;;;;;;;43.90;23.30;;;;;;;;;;5032299;28;20428;-47
2021/10/11 06:36:49;;;;;;;42.77;23.57;;;;;;;;;;5032247;28;20418;-47
2021/10/11 06:39:15;;;;;;;39.80;20.80;;;;;;;;;;5032715;28;20431;-47
2021/10/11 06:41:41;;;;;;;56.30;23.20;;;;;;;;;;5031979;28;20430;-48
2021/10/11 06:44:07;;;;;;;43.17;22.90;;;;;;;;;;5032014;28;20399;-48
2021/10/11 06:46:33;;;;;;;37.73;20.40;;;;;;;;;;5032019;28;20455;-46
2021/10/11 06:48:59;;;;;;;41.00;21.70;;;;;;;;;;5032065;28;20454;-48
2021/10/11 06:51:25;;;;;;;32.83;19.87;;;;;;;;;;5031881;28;20955;-46
2021/10/11 06:53:51;;;;;;;37.00;18.23;;;;;;;;;;5031950;28;20401;-46
2021/10/11 06:56:17;;;;;;;36.73;19.13;;;;;;;;;;5031073;28;20466;-50
2021/10/11 06:58:43;;;;;;;34.80;18.80;;;;;;;;;;5032154;28;20913;-46
2021/10/11 07:01:09;;;;;;;34.30;18.60;;;;;;;;;;5031803;28;20835;-46
2021/10/11 07:03:37;;;;;;;30.47;18.13;;;;;;;;;;5031790;28;20413;-46
2021/10/11 07:06:06;;;;;;;30.97;16.47;;;;;;;;;;5032047;28;20379;-45
2021/10/11 07:08:32;;;;;;;32.20;14.23;;;;;;;;;;5031638;28;20446;-45
2021/10/11 07:10:58;;;;;;;29.93;14.93;;;;;;;;;;5032122;28;20806;-45
2021/10/11 07:13:25;;;;;;;24.40;12.50;;;;;;;;;;5031548;28;20422;-46
2021/10/11 07:15:51;;;;;;;23.00;12.63;;;;;;;;;;5031800;28;20402;-46
2021/10/11 07:18:17;;;;;;;21.13;12.57;;;;;;;;;;5031661;28;20476;-46
2021/10/11 07:20:45;;;;;;;27.93;11.73;;;;;;;;;;5031755;28;20415;-45
2021/10/11 07:23:11;;;;;;;25.63;11.83;;;;;;;;;;5031401;28;20435;-46
2021/10/11 07:25:37;;;;;;;25.03;11.97;;;;;;;;;;5031712;28;20410;-46
2021/10/11 07:28:03;;;;;;;20.40;10.53;;;;;;;;;;5031615;28;20537;-45
2021/10/11 07:30:30;;;;;;;20.87;11.10;;;;;;;;;;5031620;28;20422;-45
2021/10/11 07:32:56;;;;;;;22.33;11.47;;;;;;;;;;5031428;28;20419;-46
2021/10/11 07:35:22;;;;;;;16.23;9.60;;;;;;;;;;5031693;28;20426;-45
2021/10/11 07:37:48;;;;;;;21.47;9.00;;;;;;;;;;5031422;28;20401;-46
2021/10/11 07:40:14;;;;;;;13.03;8.93;;;;;;;;;;5031610;28;20402;-46
2021/10/11 07:42:40;;;;;;;15.20;9.10;;;;;;;;;;5031262;28;20430;-46
2021/10/11 07:45:06;;;;;;;19.17;8.60;;;;;;;;;;5031520;28;20481;-46
2021/10/11 07:47:32;;;;;;;12.63;7.50;;;;;;;;;;5031416;28;20411;-46
2021/10/11 07:49:58;;;;;;;14.00;8.67;;;;;;;;;;5031532;28;20416;-45
2021/10/11 07:52:24;;;;;;;18.70;8.37;;;;;;;;;;5031042;28;20451;-46
2021/10/11 07:54:50;;;;;;;21.00;9.23;;;;;;;;;;5031471;28;20403;-46
2021/10/11 07:57:16;;;;;;;12.57;8.27;;;;;;;;;;5031350;28;20430;-47
2021/10/11 07:59:42;;;;;;;17.00;7.20;;;;;;;;;;5031395;28;20403;-47
2021/10/11 08:02:08;;;;;;;15.20;8.60;;;;;;;;;;5031173;28;20476;-45
2021/10/11 08:04:34;;;;;;;16.47;7.50;;;;;;;;;;5031493;28;21183;-45
2021/10/11 08:07:00;;;;;;;11.53;8.27;;;;;;;;;;5031258;28;20499;-46
2021/10/11 08:09:26;;;;;;;18.50;9.00;;;;;;;;;;5031260;28;20459;-48
2021/10/11 08:11:52;;;;;;;19.43;7.77;;;;;;;;;;5031091;28;20416;-46
2021/10/11 08:14:18;;;;;;;13.73;7.20;;;;;;;;;;5031983;28;20854;-46
2021/10/11 08:16:44;;;;;;;10.57;6.50;;;;;;;;;;5034809;28;20855;-46
2021/10/11 08:19:11;;;;;;;10.23;6.50;;;;;;;;;;5034948;28;20404;-46
2021/10/11 08:21:37;;;;;;;7.73;6.10;;;;;;;;;;5034658;28;20482;-46
2021/10/11 08:24:04;;;;;;;11.07;5.97;;;;;;;;;;5034569;28;20411;-45
2021/10/11 08:26:31;;;;;;;18.60;7.90;;;;;;;;;;5034675;28;20408;-46
2021/10/11 08:28:59;;;;;;;19.23;6.40;;;;;;;;;;5034571;28;20463;-45
2021/10/11 08:31:25;;;;;;;10.77;6.53;;;;;;;;;;5034562;28;20428;-46
2021/10/11 08:33:51;;;;;;;16.90;7.20;;;;;;;;;;5034404;28;20435;-46
2021/10/11 08:36:17;;;;;;;17.60;6.30;;;;;;;;;;5034510;28;20771;-46
2021/10/11 08:38:44;;;;;;;12.30;6.43;;;;;;;;;;5034774;28;20413;-47
2021/10/11 08:41:10;;;;;;;16.57;5.77;;;;;;;;;;5034440;28;20415;-47
2021/10/11 08:43:37;;;;;;;14.50;5.47;;;;;;;;;;5034216;28;20410;-47
2021/10/11 08:46:03;;;;;;;16.53;5.20;;;;;;;;;;5034410;28;20392;-47
2021/10/11 08:48:30;;;;;;;12.53;5.70;;;;;;;;;;5034155;28;20451;-46
2021/10/11 08:50:56;;;;;;;11.67;6.13;;;;;;;;;;5034303;28;20397;-46
2021/10/11 08:53:22;;;;;;;11.87;5.33;;;;;;;;;;5033782;28;20452;-45
2021/10/11 08:55:48;;;;;;;14.97;6.90;;;;;;;;;;5034241;28;20499;-46
2021/10/11 08:58:14;;;;;;;10.70;6.00;;;;;;;;;;5034029;28;20409;-46
2021/10/11 09:00:40;;;;;;;9.37;5.80;;;;;;;;;;5034080;28;20464;-46
2021/10/11 09:03:08;;;;;;;12.33;5.67;;;;;;;;;;5033726;28;20490;-46
2021/10/11 09:05:41;;;;;;;11.13;5.67;;;;;;;;;;5034000;28;20469;-46
2021/10/11 09:08:08;;;;;;;19.80;6.67;;;;;;;;;;5033809;28;20451;-46
2021/10/11 09:10:57;;;;;;;9.20;5.80;;;;;;;;;;5034220;28;20845;-47
2021/10/11 09:13:31;;;;;;;13.60;6.07;;;;;;;;;;5033140;28;20444;-47
2021/10/11 09:16:04;;;;;;;22.90;6.27;;;;;;;;;;5033877;28;20467;-45
2021/10/11 09:18:31;;;;;;;10.20;6.43;;;;;;;;;;5034015;28;20426;-45
2021/10/11 09:20:57;;;;;;;22.77;6.27;;;;;;;;;;5033731;28;20479;-45
2021/10/11 09:23:29;;;;;;;14.37;6.33;;;;;;;;;;5033451;28;20455;-46
2021/10/11 09:25:55;;;;;;;14.20;6.57;;;;;;;;;;5032278;28;20899;-45
2021/10/11 09:28:21;;;;;;;16.77;6.10;;;;;;;;;;5033401;28;20494;-46
2021/10/11 09:30:48;;;;;;;15.60;6.40;;;;;;;;;;5033556;28;20399;-46
2021/10/11 09:33:14;;;;;;;13.33;5.90;;;;;;;;;;5033227;28;20424;-46
2021/10/11 09:35:41;;;;;;;14.70;5.70;;;;;;;;;;5033432;28;20396;-48
2021/10/11 09:38:25;;;;;;;8.90;5.33;;;;;;;;;;5033296;28;20448;-46
2021/10/11 09:40:52;;;;;;;9.80;5.07;;;;;;;;;;5019086;28;20778;-46
2021/10/11 09:43:20;;;;;;;10.47;4.80;;;;;;;;;;5013147;28;20846;-45
2021/10/11 09:45:46;;;;;;;12.90;4.97;;;;;;;;;;5013448;28;20412;-46
2021/10/11 09:48:12;;;;;;;12.27;5.40;;;;;;;;;;5013461;28;20843;-45
2021/10/11 09:50:39;;;;;;;11.80;5.63;;;;;;;;;;5012113;28;20464;-46
2021/10/11 09:53:05;;;;;;;10.70;5.90;;;;;;;;;;5012889;28;20453;-46
2021/10/11 09:55:33;;;;;;;9.23;5.53;;;;;;;;;;5013225;28;20403;-46
2021/10/11 09:58:00;;;;;;;7.00;5.03;;;;;;;;;;5013123;28;20494;-46
2021/10/11 10:00:26;;;;;;;4.90;4.47;;;;;;;;;;5013203;28;20421;-46
2021/10/11 10:02:53;;;;;;;10.83;4.83;;;;;;;;;;5012927;28;20446;-47
2021/10/11 10:05:25;;;;;;;10.80;3.80;;;;;;;;;;5013030;28;20406;-46
2021/10/11 10:07:52;;;;;;;8.90;3.17;;;;;;;;;;5024447;28;20432;-48
2021/10/11 10:10:22;;;;;;;5.63;3.33;;;;;;;;;;5032900;28;20414;-47
2021/10/11 10:12:52;;;;;;;10.37;2.83;;;;;;;;;;5032375;28;20459;-46
2021/10/11 10:15:32;;;;;;;5.73;3.40;;;;;;;;;;5032794;28;20464;-46
2021/10/11 10:18:01;;;;;;;6.83;2.53;;;;;;;;;;5032825;28;20377;-47
2021/10/11 10:20:27;;;;;;;6.17;2.80;;;;;;;;;;5032387;28;20415;-46
2021/10/11 10:22:53;;;;;;;23.27;14.47;;;;;;;;;;5032229;28;20453;-46
2021/10/11 10:25:20;;;;;;;11.83;3.07;;;;;;;;;;5032746;28;20407;-46
2021/10/11 10:27:47;;;;;;;7.57;3.37;;;;;;;;;;5032342;28;20496;-46
2021/10/11 10:30:17;;;;;;;7.43;2.47;;;;;;;;;;5032350;28;20406;-46
2021/10/11 10:32:52;;;;;;;7.13;2.77;;;;;;;;;;5032056;28;20459;-47
2021/10/11 10:35:19;;;;;;;7.63;3.57;;;;;;;;;;5032565;28;20374;-46
2021/10/11 10:37:45;;;;;;;4.53;2.80;;;;;;;;;;5031881;28;20420;-47
2021/10/11 10:40:13;;;;;;;9.33;2.60;;;;;;;;;;5032174;28;20376;-46
2021/10/11 10:42:39;;;;;;;5.43;2.37;;;;;;;;;;5032289;28;20408;-46
2021/10/11 10:45:13;;;;;;;6.77;2.53;;;;;;;;;;5032169;28;20376;-46
2021/10/11 10:47:41;;;;;;;8.20;3.53;;;;;;;;;;5032145;28;20810;-47
2021/10/11 10:50:28;;;;;;;6.60;2.60;;;;;;;;;;5032126;28;20894;-47
2021/10/11 10:52:59;;;;;;;9.67;2.10;;;;;;;;;;5031659;28;20419;-47
2021/10/11 10:55:26;;;;;;;6.00;2.40;;;;;;;;;;5031984;28;20850;-47
2021/10/11 10:57:59;;;;;;;4.50;2.57;;;;;;;;;;5031809;28;20935;-46
2021/10/11 11:00:25;;;;;;;4.17;2.30;;;;;;;;;;5032371;28;20459;-47
2021/10/11 11:02:52;;;;;;;7.43;2.53;;;;;;;;;;5031722;28;20935;-48
2021/10/11 11:05:21;;;;;;;6.37;2.67;;;;;;;;;;5031897;28;20375;-46
2021/10/11 11:07:49;;;;;;;12.10;2.77;;;;;;;;;;5031576;28;20526;-46
2021/10/11 11:10:18;;;;;;;6.60;2.23;;;;;;;;;;5031856;28;20431;-46
2021/10/11 11:12:46;;;;;;;13.27;3.73;;;;;;;;;;5031623;28;20394;-47
2021/10/11 11:15:23;;;;;;;10.33;3.30;;;;;;;;;;5031772;28;20873;-47
2021/10/11 11:17:49;;;;;;;6.97;3.00;;;;;;;;;;5031873;28;20479;-46
2021/10/11 11:20:18;;;;;;;6.00;2.90;;;;;;;;;;5031891;28;20408;-46
2021/10/11 11:22:44;;;;;;;10.40;3.90;;;;;;;;;;5031405;28;20420;-49
2021/10/11 11:25:10;;;;;;;7.97;4.63;;;;;;;;;;5031918;28;20402;-49
2021/10/11 11:27:38;;;;;;;19.67;9.53;;;;;;;;;;5031709;28;20441;-49
2021/10/11 11:30:09;;;;;;;15.40;9.73;;;;;;;;;;5018435;28;20407;-47
2021/10/11 11:32:45;;;;;;;21.37;14.10;;;;;;;;;;5011691;28;21018;-47
2021/10/11 11:35:19;;;;;;;10.63;5.70;;;;;;;;;;5011862;28;20441;-48
2021/10/11 11:37:45;;;;;;;6.90;3.40;;;;;;;;;;5011867;28;20824;-47
2021/10/11 11:40:11;;;;;;;11.40;4.30;;;;;;;;;;5011862;28;20395;-46
2021/10/11 11:42:37;;;;;;;25.23;11.53;;;;;;;;;;5011556;28;20457;-46
2021/10/11 11:45:03;;;;;;;24.13;14.17;;;;;;;;;;5011898;28;20429;-45
2021/10/11 11:47:30;;;;;;;22.70;12.57;;;;;;;;;;5011680;28;20407;-46
2021/10/11 11:49:56;;;;;;;17.97;11.90;;;;;;;;;;5013405;28;20816;-46
2021/10/11 11:52:22;;;;;;;25.13;16.90;;;;;;;;;;5015308;28;20413;-45
2021/10/11 11:54:58;;;;;;;9.90;6.57;;;;;;;;;;5016600;28;20378;-46
2021/10/11 11:57:24;;;;;;;11.50;5.87;;;;;;;;;;5015667;28;20462;-46
2021/10/11 11:59:50;;;;;;;20.73;11.57;;;;;;;;;;5014587;28;20412;-46
2021/10/11 12:02:17;;;;;;;13.10;8.23;;;;;;;;;;5015123;28;20789;-47
2021/10/11 12:04:47;;;;;;;10.17;2.80;;;;;;;;;;5015263;28;20418;-46
2021/10/11 12:07:14;;;;;;;5.73;2.20;;;;;;;;;;5015443;28;20879;-47
2021/10/11 12:09:42;;;;;;;11.30;4.70;;;;;;;;;;5015464;28;20458;-47
2021/10/11 12:12:09;;;;;;;8.17;4.23;;;;;;;;;;5015135;28;20446;-48
2021/10/11 12:14:36;;;;;;;7.23;2.83;;;;;;;;;;5015203;28;20770;-47
2021/10/11 12:17:05;;;;;;;5.80;2.10;;;;;;;;;;5014937;28;20403;-46
2021/10/11 12:19:32;;;;;;;4.27;1.60;;;;;;;;;;5015067;28;20407;-47
2021/10/11 12:21:58;;;;;;;7.60;2.33;;;;;;;;;;5014507;28;20485;-47
2021/10/11 12:24:31;;;;;;;4.80;1.83;;;;;;;;;;5015140;28;20418;-47
2021/10/11 12:26:58;;;;;;;10.37;1.97;;;;;;;;;;5014918;28;20783;-48
2021/10/11 12:29:26;;;;;;;8.07;2.33;;;;;;;;;;5015135;28;20458;-47
2021/10/11 12:31:56;;;;;;;8.67;2.33;;;;;;;;;;5014620;28;20481;-47
2021/10/11 12:34:27;;;;;;;10.17;2.00;;;;;;;;;;5014954;28;20450;-47
2021/10/11 12:36:54;;;;;;;4.40;2.00;;;;;;;;;;5014703;28;20410;-46
2021/10/11 12:39:20;;;;;;;6.03;1.93;;;;;;;;;;5014793;28;20399;-46
2021/10/11 12:41:47;;;;;;;8.50;2.30;;;;;;;;;;5014482;28;20428;-49
2021/10/11 12:44:16;;;;;;;5.43;1.80;;;;;;;;;;5014734;28;20414;-46
2021/10/11 12:46:43;;;;;;;4.67;2.60;;;;;;;;;;5014606;28;20399;-49
2021/10/11 12:49:09;;;;;;;9.60;2.70;;;;;;;;;;5014455;28;20450;-48
2021/10/11 12:51:36;;;;;;;5.63;2.40;;;;;;;;;;5014571;28;20526;-47
2021/10/11 12:54:10;;;;;;;8.53;2.07;;;;;;;;;;5014223;28;20414;-47
2021/10/11 12:56:37;;;;;;;6.27;2.33;;;;;;;;;;5014370;28;20895;-47
2021/10/11 12:59:04;;;;;;;6.87;2.70;;;;;;;;;;5014355;28;20775;-47
2021/10/11 13:01:30;;;;;;;6.90;2.70;;;;;;;;;;5014034;28;20502;-47
2021/10/11 13:03:56;;;;;;;4.53;2.10;;;;;;;;;;5014113;28;20431;-47
2021/10/11 13:06:30;;;;;;;9.13;3.57;;;;;;;;;;5022400;28;20903;-47
2021/10/11 13:08:57;;;;;;;5.07;1.90;;;;;;;;;;5034285;28;20452;-48
2021/10/11 13:11:23;;;;;;;4.33;2.00;;;;;;;;;;5033712;28;20417;-46
2021/10/11 13:13:49;;;;;;;3.57;2.10;;;;;;;;;;5033567;28;20403;-47
2021/10/11 13:16:15;;;;;;;6.90;2.10;;;;;;;;;;5033949;28;20424;-47
2021/10/11 13:18:41;;;;;;;7.40;2.27;;;;;;;;;;5033805;28;20418;-46
2021/10/11 13:21:07;;;;;;;4.97;2.10;;;;;;;;;;5033635;28;20411;-48
2021/10/11 13:23:33;;;;;;;5.30;3.27;;;;;;;;;;5033498;28;20547;-46
2021/10/11 13:25:59;;;;;;;4.60;2.43;;;;;;;;;;5033569;28;20956;-47
2021/10/11 13:28:25;;;;;;;3.93;2.13;;;;;;;;;;5033545;28;20821;-46
2021/10/11 13:31:50;;;;;;;3.50;2.17;;;;;;;;;;5033648;28;20782;-47
2021/10/11 14:28:43;;;;;;;4.90;1.70;;;;;;;;;;5032220;28;20476;-46
2021/10/11 14:31:21;;;;;;;8.73;2.60;;;;;;;;;;5032338;28;20390;-45
2021/10/11 14:34:12;;;;;;;2.97;1.90;;;;;;;;;;5032426;28;20408;-45
2021/10/11 16:01:43;;;;;;;9.03;2.80;;;;;;;;;;5035294;28;20437;-45
2021/10/11 16:04:09;;;;;;;4.30;2.57;;;;;;;;;;5034947;28;20487;-46
2021/10/11 16:06:36;;;;;;;15.87;3.00;;;;;;;;;;5035082;28;20401;-46
2021/10/11 16:09:02;;;;;;;2.70;2.50;;;;;;;;;;5035056;28;20454;-46
2021/10/11 16:11:29;;;;;;;6.03;2.93;;;;;;;;;;5035003;28;20456;-45
2021/10/11 16:13:55;;;;;;;7.87;3.10;;;;;;;;;;5034881;28;20405;-45
2021/10/11 16:16:21;;;;;;;4.47;2.90;;;;;;;;;;5034869;28;20405;-46
2021/10/11 16:18:47;;;;;;;5.00;2.60;;;;;;;;;;5034719;28;20441;-47
2021/10/11 16:21:13;;;;;;;6.87;2.47;;;;;;;;;;5034812;28;20447;-46
2021/10/11 16:23:40;;;;;;;9.33;2.53;;;;;;;;;;5034747;28;20852;-45
2021/10/11 16:26:07;;;;;;;17.23;4.60;;;;;;;;;;5034622;28;20894;-46
2021/10/11 16:28:36;;;;;;;4.23;3.00;;;;;;;;;;5035013;28;20449;-46
2021/10/11 16:31:03;;;;;;;7.80;2.60;;;;;;;;;;5034581;28;20900;-47
2021/10/11 16:33:29;;;;;;;7.87;3.20;;;;;;;;;;5034188;28;20428;-46
2021/10/11 16:35:55;;;;;;;12.80;3.80;;;;;;;;;;5033834;28;20395;-45
2021/10/11 16:38:21;;;;;;;14.73;3.10;;;;;;;;;;5034586;28;20826;-47
2021/10/11 16:40:49;;;;;;;5.00;2.90;;;;;;;;;;5034698;28;20443;-44
2021/10/11 16:43:15;;;;;;;8.53;2.90;;;;;;;;;;5034275;28;20469;-45
2021/10/11 16:45:41;;;;;;;10.20;3.13;;;;;;;;;;5034397;28;20404;-46